sensor_id;sensor_type;location;lat;lon;timestamp;temperature;humidity
1988;DHT22;12775;46.994;15.498;2022-10-16T00:01:22;14.80;99.90
1988;DHT22;12775;46.994;15.498;2022-10-16T00:03:47;14.80;99.90
1988;DHT22;12775;46.994;15.498;2022-10-16T00:06:15;14.80;99.90
1988;DHT22;12775;46.994;15.498;2022-10-16T00:08:41;14.80;99.90
1988;DHT22;12775;46.994;15.498;2022-10-16T00:11:10;14.80;99.90
1988;DHT22;12775;46.994;15.498;2022-10-16T00:13:36;14.70;99.90
1988;DHT22;12775;46.994;15.498;2022-10-16T00:16:02;14.70;99.90
1988;DHT22;12775;46.994;15.498;2022-10-16T00:18:29;14.70;99.90
1988;DHT22;12775;46.994;15.498;2022-10-16T00:20:56;14.70;99.90
1988;DHT22;12775;46.994;15.498;2022-10-16T00:23:22;14.70;99.90
1988;DHT22;12775;46.994;15.498;2022-10-16T00:25:56;14.70;99.90
1988;DHT22;12775;46.994;15.498;2022-10-16T00:28:22;14.60;99.90
1988;DHT22;12775;46.994;15.498;2022-10-16T00:30:49;14.60;99.90
1988;DHT22;12775;46.994;15.498;2022-10-16T00:33:15;14.60;99.90
1988;DHT22;12775;46.994;15.498;2022-10-16T00:35:42;14.60;99.90
1988;DHT22;12775;46.994;15.498;2022-10-16T00:38:08;14.50;99.90
1988;DHT22;12775;46.994;15.498;2022-10-16T00:40:35;14.50;99.90
1988;DHT22;12775;46.994;15.498;2022-10-16T00:43:02;14.60;99.90
1988;DHT22;12775;46.994;15.498;2022-10-16T00:45:28;14.60;99.90
1988;DHT22;12775;46.994;15.498;2022-10-16T00:47:55;14.60;99.90
1988;DHT22;12775;46.994;15.498;2022-10-16T00:50:27;14.60;99.90
1988;DHT22;12775;46.994;15.498;2022-10-16T00:52:51;14.70;99.90
1988;DHT22;12775;46.994;15.498;2022-10-16T00:55:17;14.70;99.90
1988;DHT22;12775;46.994;15.498;2022-10-16T00:57:44;14.70;99.90
1988;DHT22;12775;46.994;15.498;2022-10-16T01:00:12;14.70;99.90
1988;DHT22;12775;46.994;15.498;2022-10-16T01:02:37;14.70;99.90
1988;DHT22;12775;46.994;15.498;2022-10-16T01:05:04;14.70;99.90
1988;DHT22;12775;46.994;15.498;2022-10-16T01:07:43;14.80;99.90
1988;DHT22;12775;46.994;15.498;2022-10-16T01:10:13;14.80;99.90
1988;DHT22;12775;46.994;15.498;2022-10-16T01:12:41;14.70;99.90
1988;DHT22;12775;46.994;15.498;2022-10-16T01:15:18;14.70;99.90
1988;DHT22;12775;46.994;15.498;2022-10-16T01:17:57;14.70;99.90
1988;DHT22;12775;46.994;15.498;2022-10-16T01:20:27;14.80;99.90
1988;DHT22;12775;46.994;15.498;2022-10-16T01:23:20;14.60;99.90
1988;DHT22;12775;46.994;15.498;2022-10-16T01:25:49;14.60;99.90
1988;DHT22;12775;46.994;15.498;2022-10-16T01:28:11;14.60;99.90
1988;DHT22;12775;46.994;15.498;2022-10-16T01:30:37;14.60;99.90
1988;DHT22;12775;46.994;15.498;2022-10-16T01:33:08;14.70;99.90
1988;DHT22;12775;46.994;15.498;2022-10-16T01:35:36;14.70;99.90
1988;DHT22;12775;46.994;15.498;2022-10-16T01:38:05;14.70;99.90
1988;DHT22;12775;46.994;15.498;2022-10-16T01:40:30;14.70;99.90
1988;DHT22;12775;46.994;15.498;2022-10-16T01:42:59;14.70;99.90
1988;DHT22;12775;46.994;15.498;2022-10-16T01:45:23;14.70;99.90
1988;DHT22;12775;46.994;15.498;2022-10-16T01:47:50;14.70;99.90
1988;DHT22;12775;46.994;15.498;2022-10-16T01:50:18;14.80;99.90
1988;DHT22;12775;46.994;15.498;2022-10-16T01:52:44;14.80;99.90
1988;DHT22;12775;46.994;15.498;2022-10-16T01:55:11;14.80;99.90
1988;DHT22;12775;46.994;15.498;2022-10-16T01:57:37;14.80;99.90
1988;DHT22;12775;46.994;15.498;2022-10-16T02:00:05;14.80;99.90
1988;DHT22;12775;46.994;15.498;2022-10-16T02:02:31;14.80;99.90
1988;DHT22;12775;46.994;15.498;2022-10-16T02:05:01;14.90;99.90
1988;DHT22;12775;46.994;15.498;2022-10-16T02:07:25;14.90;99.90
1988;DHT22;12775;46.994;15.498;2022-10-16T02:09:51;14.90;99.90
1988;DHT22;12775;46.994;15.498;2022-10-16T02:12:20;14.90;99.90
1988;DHT22;12775;46.994;15.498;2022-10-16T02:14:45;14.90;99.90
1988;DHT22;12775;46.994;15.498;2022-10-16T02:17:13;14.90;99.90
1988;DHT22;12775;46.994;15.498;2022-10-16T02:19:39;14.90;99.90
1988;DHT22;12775;46.994;15.498;2022-10-16T02:22:05;14.90;99.90
1988;DHT22;12775;46.994;15.498;2022-10-16T02:24:33;14.90;99.90
1988;DHT22;12775;46.994;15.498;2022-10-16T02:27:20;14.90;99.90
1988;DHT22;12775;46.994;15.498;2022-10-16T02:29:47;14.80;99.90
1988;DHT22;12775;46.994;15.498;2022-10-16T02:32:14;14.80;99.90
1988;DHT22;12775;46.994;15.498;2022-10-16T02:34:41;14.70;99.90
1988;DHT22;12775;46.994;15.498;2022-10-16T02:37:07;14.70;99.90
1988;DHT22;12775;46.994;15.498;2022-10-16T02:39:34;14.80;99.90
1988;DHT22;12775;46.994;15.498;2022-10-16T02:42:01;14.80;99.90
1988;DHT22;12775;46.994;15.498;2022-10-16T02:44:28;14.80;99.90
1988;DHT22;12775;46.994;15.498;2022-10-16T02:46:54;14.80;99.90
1988;DHT22;12775;46.994;15.498;2022-10-16T02:49:22;14.80;99.90
1988;DHT22;12775;46.994;15.498;2022-10-16T02:51:48;14.80;99.90
1988;DHT22;12775;46.994;15.498;2022-10-16T02:54:15;14.80;99.90
1988;DHT22;12775;46.994;15.498;2022-10-16T02:56:42;14.80;99.90
1988;DHT22;12775;46.994;15.498;2022-10-16T02:59:08;14.80;99.90
1988;DHT22;12775;46.994;15.498;2022-10-16T03:01:35;14.80;99.90
1988;DHT22;12775;46.994;15.498;2022-10-16T03:04:01;14.80;99.90
1988;DHT22;12775;46.994;15.498;2022-10-16T03:06:28;14.80;99.90
1988;DHT22;12775;46.994;15.498;2022-10-16T03:08:54;14.80;99.90
1988;DHT22;12775;46.994;15.498;2022-10-16T03:11:21;14.80;99.90
1988;DHT22;12775;46.994;15.498;2022-10-16T03:13:48;14.80;99.90
1988;DHT22;12775;46.994;15.498;2022-10-16T03:16:15;14.80;99.90
1988;DHT22;12775;46.994;15.498;2022-10-16T03:18:42;14.90;99.90
1988;DHT22;12775;46.994;15.498;2022-10-16T03:21:08;14.80;99.90
1988;DHT22;12775;46.994;15.498;2022-10-16T03:23:35;14.80;99.90
1988;DHT22;12775;46.994;15.498;2022-10-16T03:26:01;14.80;99.90
1988;DHT22;12775;46.994;15.498;2022-10-16T03:28:28;14.70;99.90
1988;DHT22;12775;46.994;15.498;2022-10-16T03:30:55;14.70;99.90
1988;DHT22;12775;46.994;15.498;2022-10-16T03:33:21;14.60;99.90
1988;DHT22;12775;46.994;15.498;2022-10-16T03:35:52;14.60;99.90
1988;DHT22;12775;46.994;15.498;2022-10-16T03:38:19;14.60;99.90
1988;DHT22;12775;46.994;15.498;2022-10-16T03:40:46;14.70;99.90
1988;DHT22;12775;46.994;15.498;2022-10-16T03:43:12;14.60;99.90
1988;DHT22;12775;46.994;15.498;2022-10-16T03:45:39;14.60;99.90
1988;DHT22;12775;46.994;15.498;2022-10-16T03:48:05;14.50;99.90
1988;DHT22;12775;46.994;15.498;2022-10-16T03:50:33;14.60;99.90
1988;DHT22;12775;46.994;15.498;2022-10-16T03:52:59;14.60;99.90
1988;DHT22;12775;46.994;15.498;2022-10-16T03:55:26;14.60;99.90
1988;DHT22;12775;46.994;15.498;2022-10-16T03:57:52;14.60;99.90
1988;DHT22;12775;46.994;15.498;2022-10-16T04:00:20;14.60;99.90
1988;DHT22;12775;46.994;15.498;2022-10-16T04:02:46;14.60;99.90
1988;DHT22;12775;46.994;15.498;2022-10-16T04:05:13;14.70;99.90
1988;DHT22;12775;46.994;15.498;2022-10-16T04:07:40;14.70;99.90
1988;DHT22;12775;46.994;15.498;2022-10-16T04:10:06;14.70;99.90
1988;DHT22;12775;46.994;15.498;2022-10-16T04:12:33;14.70;99.90
1988;DHT22;12775;46.994;15.498;2022-10-16T04:15:00;14.80;99.90
1988;DHT22;12775;46.994;15.498;2022-10-16T04:17:26;14.70;99.90
1988;DHT22;12775;46.994;15.498;2022-10-16T04:19:54;14.80;99.90
1988;DHT22;12775;46.994;15.498;2022-10-16T04:22:20;14.70;99.90
1988;DHT22;12775;46.994;15.498;2022-10-16T04:24:47;14.70;99.90
1988;DHT22;12775;46.994;15.498;2022-10-16T04:27:13;14.80;99.90
1988;DHT22;12775;46.994;15.498;2022-10-16T04:29:40;14.70;99.90
1988;DHT22;12775;46.994;15.498;2022-10-16T04:32:08;14.70;99.90
1988;DHT22;12775;46.994;15.498;2022-10-16T04:34:34;14.70;99.90
1988;DHT22;12775;46.994;15.498;2022-10-16T04:37:01;14.70;99.90
1988;DHT22;12775;46.994;15.498;2022-10-16T04:39:28;14.70;99.90
1988;DHT22;12775;46.994;15.498;2022-10-16T04:41:55;14.70;99.90
1988;DHT22;12775;46.994;15.498;2022-10-16T04:44:23;14.50;99.90
1988;DHT22;12775;46.994;15.498;2022-10-16T04:46:51;14.50;99.90
1988;DHT22;12775;46.994;15.498;2022-10-16T04:49:18;14.40;99.90
1988;DHT22;12775;46.994;15.498;2022-10-16T04:51:44;14.30;99.90
1988;DHT22;12775;46.994;15.498;2022-10-16T04:54:11;14.30;99.90
1988;DHT22;12775;46.994;15.498;2022-10-16T04:56:37;14.20;99.90
1988;DHT22;12775;46.994;15.498;2022-10-16T04:59:04;14.10;99.90
1988;DHT22;12775;46.994;15.498;2022-10-16T05:01:31;14.00;99.90
1988;DHT22;12775;46.994;15.498;2022-10-16T05:03:57;14.10;99.90
1988;DHT22;12775;46.994;15.498;2022-10-16T05:06:24;14.10;99.90
1988;DHT22;12775;46.994;15.498;2022-10-16T05:08:51;14.10;99.90
1988;DHT22;12775;46.994;15.498;2022-10-16T05:11:18;14.00;99.90
1988;DHT22;12775;46.994;15.498;2022-10-16T05:13:45;14.10;99.90
1988;DHT22;12775;46.994;15.498;2022-10-16T05:16:12;14.10;99.90
1988;DHT22;12775;46.994;15.498;2022-10-16T05:18:38;14.20;99.90
1988;DHT22;12775;46.994;15.498;2022-10-16T05:21:05;14.20;99.90
1988;DHT22;12775;46.994;15.498;2022-10-16T05:23:32;14.30;99.90
1988;DHT22;12775;46.994;15.498;2022-10-16T05:25:59;14.20;99.90
1988;DHT22;12775;46.994;15.498;2022-10-16T05:28:26;14.30;99.90
1988;DHT22;12775;46.994;15.498;2022-10-16T05:30:53;14.40;99.90
1988;DHT22;12775;46.994;15.498;2022-10-16T05:33:20;14.30;99.90
1988;DHT22;12775;46.994;15.498;2022-10-16T05:35:46;14.30;99.90
1988;DHT22;12775;46.994;15.498;2022-10-16T05:38:13;14.30;99.90
1988;DHT22;12775;46.994;15.498;2022-10-16T05:40:39;14.30;99.90
1988;DHT22;12775;46.994;15.498;2022-10-16T05:43:06;14.20;99.90
1988;DHT22;12775;46.994;15.498;2022-10-16T05:45:33;14.20;99.90
1988;DHT22;12775;46.994;15.498;2022-10-16T05:47:59;14.30;99.90
1988;DHT22;12775;46.994;15.498;2022-10-16T05:50:26;14.30;99.90
1988;DHT22;12775;46.994;15.498;2022-10-16T05:52:52;14.30;99.90
1988;DHT22;12775;46.994;15.498;2022-10-16T05:55:19;14.30;99.90
1988;DHT22;12775;46.994;15.498;2022-10-16T05:57:46;14.20;99.90
1988;DHT22;12775;46.994;15.498;2022-10-16T06:00:12;14.20;99.90
1988;DHT22;12775;46.994;15.498;2022-10-16T06:02:39;14.20;99.90
1988;DHT22;12775;46.994;15.498;2022-10-16T06:05:06;14.10;99.90
1988;DHT22;12775;46.994;15.498;2022-10-16T06:07:35;14.00;99.90
1988;DHT22;12775;46.994;15.498;2022-10-16T06:10:02;14.00;99.90
1988;DHT22;12775;46.994;15.498;2022-10-16T06:12:28;14.00;99.90
1988;DHT22;12775;46.994;15.498;2022-10-16T06:14:55;14.00;99.90
1988;DHT22;12775;46.994;15.498;2022-10-16T06:17:21;14.00;99.90
1988;DHT22;12775;46.994;15.498;2022-10-16T06:19:48;14.00;99.90
1988;DHT22;12775;46.994;15.498;2022-10-16T06:22:15;14.00;99.90
1988;DHT22;12775;46.994;15.498;2022-10-16T06:24:42;13.90;99.90
1988;DHT22;12775;46.994;15.498;2022-10-16T06:27:09;13.90;99.90
1988;DHT22;12775;46.994;15.498;2022-10-16T06:29:35;13.90;99.90
1988;DHT22;12775;46.994;15.498;2022-10-16T06:32:02;13.90;99.90
1988;DHT22;12775;46.994;15.498;2022-10-16T06:34:29;13.90;99.90
1988;DHT22;12775;46.994;15.498;2022-10-16T06:36:56;13.90;99.90
1988;DHT22;12775;46.994;15.498;2022-10-16T06:39:23;14.00;99.90
1988;DHT22;12775;46.994;15.498;2022-10-16T06:41:49;14.00;99.90
1988;DHT22;12775;46.994;15.498;2022-10-16T06:44:16;14.00;99.90
1988;DHT22;12775;46.994;15.498;2022-10-16T06:46:42;14.00;99.90
1988;DHT22;12775;46.994;15.498;2022-10-16T06:49:09;14.00;99.90
1988;DHT22;12775;46.994;15.498;2022-10-16T06:51:36;14.10;99.90
1988;DHT22;12775;46.994;15.498;2022-10-16T06:54:02;14.10;99.90
1988;DHT22;12775;46.994;15.498;2022-10-16T06:56:30;14.10;99.90
1988;DHT22;12775;46.994;15.498;2022-10-16T06:58:56;14.10;99.90
1988;DHT22;12775;46.994;15.498;2022-10-16T07:01:23;14.10;99.90
1988;DHT22;12775;46.994;15.498;2022-10-16T07:03:50;14.20;99.90
1988;DHT22;12775;46.994;15.498;2022-10-16T07:06:17;14.20;99.90
1988;DHT22;12775;46.994;15.498;2022-10-16T07:08:43;14.30;99.90
1988;DHT22;12775;46.994;15.498;2022-10-16T07:11:10;14.30;99.90
1988;DHT22;12775;46.994;15.498;2022-10-16T07:13:37;14.40;99.90
1988;DHT22;12775;46.994;15.498;2022-10-16T07:16:06;14.50;99.90
1988;DHT22;12775;46.994;15.498;2022-10-16T07:18:32;14.50;99.90
1988;DHT22;12775;46.994;15.498;2022-10-16T07:21:07;14.50;99.90
1988;DHT22;12775;46.994;15.498;2022-10-16T07:23:33;14.60;99.90
1988;DHT22;12775;46.994;15.498;2022-10-16T07:25:59;14.70;99.90
1988;DHT22;12775;46.994;15.498;2022-10-16T07:28:26;14.70;99.90
1988;DHT22;12775;46.994;15.498;2022-10-16T07:30:52;14.70;99.90
1988;DHT22;12775;46.994;15.498;2022-10-16T07:33:20;14.80;99.90
1988;DHT22;12775;46.994;15.498;2022-10-16T07:35:52;14.80;99.90
1988;DHT22;12775;46.994;15.498;2022-10-16T07:38:18;14.70;99.90
1988;DHT22;12775;46.994;15.498;2022-10-16T07:40:45;14.80;99.90
1988;DHT22;12775;46.994;15.498;2022-10-16T07:43:12;14.80;99.90
1988;DHT22;12775;46.994;15.498;2022-10-16T07:45:54;14.80;99.90
1988;DHT22;12775;46.994;15.498;2022-10-16T07:48:21;14.80;99.90
1988;DHT22;12775;46.994;15.498;2022-10-16T07:50:47;14.90;99.90
1988;DHT22;12775;46.994;15.498;2022-10-16T07:53:14;15.00;99.90
1988;DHT22;12775;46.994;15.498;2022-10-16T07:55:40;15.10;99.90
1988;DHT22;12775;46.994;15.498;2022-10-16T07:58:07;15.10;99.90
1988;DHT22;12775;46.994;15.498;2022-10-16T08:00:35;15.20;99.90
1988;DHT22;12775;46.994;15.498;2022-10-16T08:03:00;15.10;99.90
1988;DHT22;12775;46.994;15.498;2022-10-16T08:05:27;14.80;99.90
1988;DHT22;12775;46.994;15.498;2022-10-16T08:07:53;14.70;99.90
1988;DHT22;12775;46.994;15.498;2022-10-16T08:10:21;14.90;99.90
1988;DHT22;12775;46.994;15.498;2022-10-16T08:12:47;15.00;99.90
1988;DHT22;12775;46.994;15.498;2022-10-16T08:15:14;15.20;99.90
1988;DHT22;12775;46.994;15.498;2022-10-16T08:17:41;15.30;99.90
1988;DHT22;12775;46.994;15.498;2022-10-16T08:20:08;15.50;99.90
1988;DHT22;12775;46.994;15.498;2022-10-16T08:22:35;15.50;99.90
1988;DHT22;12775;46.994;15.498;2022-10-16T08:25:02;15.60;99.90
1988;DHT22;12775;46.994;15.498;2022-10-16T08:27:33;15.70;99.90
1988;DHT22;12775;46.994;15.498;2022-10-16T08:30:00;15.90;99.90
1988;DHT22;12775;46.994;15.498;2022-10-16T08:32:28;15.90;99.90
1988;DHT22;12775;46.994;15.498;2022-10-16T08:34:54;16.00;99.90
1988;DHT22;12775;46.994;15.498;2022-10-16T08:37:22;16.10;99.90
1988;DHT22;12775;46.994;15.498;2022-10-16T08:39:48;16.10;99.90
1988;DHT22;12775;46.994;15.498;2022-10-16T08:42:28;16.50;99.90
1988;DHT22;12775;46.994;15.498;2022-10-16T08:45:05;16.50;99.90
1988;DHT22;12775;46.994;15.498;2022-10-16T08:47:35;16.60;99.90
1988;DHT22;12775;46.994;15.498;2022-10-16T08:50:00;16.80;99.90
1988;DHT22;12775;46.994;15.498;2022-10-16T08:52:29;17.00;99.90
1988;DHT22;12775;46.994;15.498;2022-10-16T08:54:53;17.20;99.90
1988;DHT22;12775;46.994;15.498;2022-10-16T08:57:21;17.40;99.90
1988;DHT22;12775;46.994;15.498;2022-10-16T08:59:47;17.40;99.90
1988;DHT22;12775;46.994;15.498;2022-10-16T09:02:27;17.60;99.90
1988;DHT22;12775;46.994;15.498;2022-10-16T09:05:03;17.80;99.90
1988;DHT22;12775;46.994;15.498;2022-10-16T09:10:32;18.00;99.90
1988;DHT22;12775;46.994;15.498;2022-10-16T09:13:00;18.20;99.90
1988;DHT22;12775;46.994;15.498;2022-10-16T09:15:30;18.40;99.90
1988;DHT22;12775;46.994;15.498;2022-10-16T09:18:02;18.50;99.90
1988;DHT22;12775;46.994;15.498;2022-10-16T09:20:28;18.50;99.90
1988;DHT22;12775;46.994;15.498;2022-10-16T09:22:55;18.70;99.90
1988;DHT22;12775;46.994;15.498;2022-10-16T09:25:21;18.80;99.90
1988;DHT22;12775;46.994;15.498;2022-10-16T09:27:48;18.90;99.90
1988;DHT22;12775;46.994;15.498;2022-10-16T09:30:16;19.00;99.90
1988;DHT22;12775;46.994;15.498;2022-10-16T09:32:43;19.20;99.90
1988;DHT22;12775;46.994;15.498;2022-10-16T09:35:14;19.40;99.90
1988;DHT22;12775;46.994;15.498;2022-10-16T09:37:41;19.60;99.90
1988;DHT22;12775;46.994;15.498;2022-10-16T09:40:12;19.50;99.90
1988;DHT22;12775;46.994;15.498;2022-10-16T09:42:35;19.70;99.90
1988;DHT22;12775;46.994;15.498;2022-10-16T09:45:01;19.80;99.90
1988;DHT22;12775;46.994;15.498;2022-10-16T09:47:28;19.90;99.90
1988;DHT22;12775;46.994;15.498;2022-10-16T09:50:00;20.10;99.90
1988;DHT22;12775;46.994;15.498;2022-10-16T09:52:25;20.20;99.90
1988;DHT22;12775;46.994;15.498;2022-10-16T09:54:54;20.40;99.90
1988;DHT22;12775;46.994;15.498;2022-10-16T09:57:20;20.50;99.90
1988;DHT22;12775;46.994;15.498;2022-10-16T09:59:50;20.60;99.90
1988;DHT22;12775;46.994;15.498;2022-10-16T10:02:17;20.80;99.90
1988;DHT22;12775;46.994;15.498;2022-10-16T10:04:48;20.80;99.70
1988;DHT22;12775;46.994;15.498;2022-10-16T10:07:18;20.90;98.60
1988;DHT22;12775;46.994;15.498;2022-10-16T10:09:44;20.90;98.60
1988;DHT22;12775;46.994;15.498;2022-10-16T10:12:18;21.20;97.50
1988;DHT22;12775;46.994;15.498;2022-10-16T10:14:50;21.30;98.80
1988;DHT22;12775;46.994;15.498;2022-10-16T10:17:20;21.20;98.80
1988;DHT22;12775;46.994;15.498;2022-10-16T10:19:48;21.50;99.70
1988;DHT22;12775;46.994;15.498;2022-10-16T10:22:32;21.70;98.90
1988;DHT22;12775;46.994;15.498;2022-10-16T10:25:19;21.90;99.30
1988;DHT22;12775;46.994;15.498;2022-10-16T10:27:55;22.10;99.60
1988;DHT22;12775;46.994;15.498;2022-10-16T10:30:39;22.30;95.50
1988;DHT22;12775;46.994;15.498;2022-10-16T10:36:40;22.70;98.10
1988;DHT22;12775;46.994;15.498;2022-10-16T10:41:50;22.80;95.00
1988;DHT22;12775;46.994;15.498;2022-10-16T10:46:48;23.20;95.70
1988;DHT22;12775;46.994;15.498;2022-10-16T10:49:30;23.30;95.60
1988;DHT22;12775;46.994;15.498;2022-10-16T10:52:02;23.50;94.90
1988;DHT22;12775;46.994;15.498;2022-10-16T10:54:40;23.40;92.60
1988;DHT22;12775;46.994;15.498;2022-10-16T10:57:10;23.20;92.00
1988;DHT22;12775;46.994;15.498;2022-10-16T11:02:31;22.90;92.40
1988;DHT22;12775;46.994;15.498;2022-10-16T11:04:58;22.80;91.50
1988;DHT22;12775;46.994;15.498;2022-10-16T11:07:27;23.00;93.30
1988;DHT22;12775;46.994;15.498;2022-10-16T11:09:56;23.10;94.10
1988;DHT22;12775;46.994;15.498;2022-10-16T11:12:27;23.30;93.80
1988;DHT22;12775;46.994;15.498;2022-10-16T11:14:57;23.30;93.80
1988;DHT22;12775;46.994;15.498;2022-10-16T11:17:23;22.90;91.50
1988;DHT22;12775;46.994;15.498;2022-10-16T11:19:51;23.10;94.20
1988;DHT22;12775;46.994;15.498;2022-10-16T11:22:22;23.20;91.90
1988;DHT22;12775;46.994;15.498;2022-10-16T11:24:52;23.00;91.60
1988;DHT22;12775;46.994;15.498;2022-10-16T11:27:18;23.20;92.30
1988;DHT22;12775;46.994;15.498;2022-10-16T11:29:46;23.20;92.80
1988;DHT22;12775;46.994;15.498;2022-10-16T11:32:16;23.40;92.50
1988;DHT22;12775;46.994;15.498;2022-10-16T11:34:43;23.40;91.60
1988;DHT22;12775;46.994;15.498;2022-10-16T11:37:12;23.50;93.10
1988;DHT22;12775;46.994;15.498;2022-10-16T11:39:38;23.70;93.20
1988;DHT22;12775;46.994;15.498;2022-10-16T11:42:08;23.80;92.50
1988;DHT22;12775;46.994;15.498;2022-10-16T11:44:55;23.90;92.30
1988;DHT22;12775;46.994;15.498;2022-10-16T11:47:45;23.90;92.20
1988;DHT22;12775;46.994;15.498;2022-10-16T11:50:33;24.20;93.90
1988;DHT22;12775;46.994;15.498;2022-10-16T11:53:11;24.30;91.80
1988;DHT22;12775;46.994;15.498;2022-10-16T11:55:37;24.20;91.00
1988;DHT22;12775;46.994;15.498;2022-10-16T11:58:07;24.40;90.70
1988;DHT22;12775;46.994;15.498;2022-10-16T12:00:36;24.60;92.60
1988;DHT22;12775;46.994;15.498;2022-10-16T12:03:09;24.60;91.90
1988;DHT22;12775;46.994;15.498;2022-10-16T12:05:58;24.80;92.90
1988;DHT22;12775;46.994;15.498;2022-10-16T12:08:24;25.00;92.30
1988;DHT22;12775;46.994;15.498;2022-10-16T12:10:51;24.80;90.40
1988;DHT22;12775;46.994;15.498;2022-10-16T12:13:28;24.90;90.10
1988;DHT22;12775;46.994;15.498;2022-10-16T12:16:03;24.90;88.20
1988;DHT22;12775;46.994;15.498;2022-10-16T12:18:22;24.90;88.20
1988;DHT22;12775;46.994;15.498;2022-10-16T12:20:54;24.80;86.80
1988;DHT22;12775;46.994;15.498;2022-10-16T12:23:19;24.60;87.90
1988;DHT22;12775;46.994;15.498;2022-10-16T12:25:43;24.70;88.50
1988;DHT22;12775;46.994;15.498;2022-10-16T12:28:27;24.70;87.60
1988;DHT22;12775;46.994;15.498;2022-10-16T12:30:53;24.50;86.20
1988;DHT22;12775;46.994;15.498;2022-10-16T12:33:26;24.40;85.60
1988;DHT22;12775;46.994;15.498;2022-10-16T12:35:52;24.50;83.40
1988;DHT22;12775;46.994;15.498;2022-10-16T12:38:25;24.50;83.40
1988;DHT22;12775;46.994;15.498;2022-10-16T12:40:58;24.40;83.20
1988;DHT22;12775;46.994;15.498;2022-10-16T12:43:25;24.30;84.30
1988;DHT22;12775;46.994;15.498;2022-10-16T12:46:23;24.20;85.70
1988;DHT22;12775;46.994;15.498;2022-10-16T12:48:31;24.30;84.30
1988;DHT22;12775;46.994;15.498;2022-10-16T12:51:09;24.40;82.70
1988;DHT22;12775;46.994;15.498;2022-10-16T12:53:25;24.20;82.40
1988;DHT22;12775;46.994;15.498;2022-10-16T12:55:57;24.40;85.80
1988;DHT22;12775;46.994;15.498;2022-10-16T13:01:07;24.30;82.60
1988;DHT22;12775;46.994;15.498;2022-10-16T13:03:43;24.50;82.70
1988;DHT22;12775;46.994;15.498;2022-10-16T13:06:16;24.50;82.60
1988;DHT22;12775;46.994;15.498;2022-10-16T13:08:57;24.30;84.30
1988;DHT22;12775;46.994;15.498;2022-10-16T13:11:31;24.30;84.30
1988;DHT22;12775;46.994;15.498;2022-10-16T13:14:02;24.50;86.20
1988;DHT22;12775;46.994;15.498;2022-10-16T13:16:32;24.60;86.10
1988;DHT22;12775;46.994;15.498;2022-10-16T13:19:18;24.40;85.90
1988;DHT22;12775;46.994;15.498;2022-10-16T13:21:56;24.50;85.80
1988;DHT22;12775;46.994;15.498;2022-10-16T13:24:36;24.50;86.40
1988;DHT22;12775;46.994;15.498;2022-10-16T13:27:13;24.30;86.70
1988;DHT22;12775;46.994;15.498;2022-10-16T13:29:35;24.20;86.70
1988;DHT22;12775;46.994;15.498;2022-10-16T13:32:07;24.30;86.60
1988;DHT22;12775;46.994;15.498;2022-10-16T13:34:29;24.30;86.60
1988;DHT22;12775;46.994;15.498;2022-10-16T13:36:56;24.20;87.80
1988;DHT22;12775;46.994;15.498;2022-10-16T13:39:26;24.20;86.90
1988;DHT22;12775;46.994;15.498;2022-10-16T13:42:05;23.90;86.30
1988;DHT22;12775;46.994;15.498;2022-10-16T13:44:35;23.80;86.40
1988;DHT22;12775;46.994;15.498;2022-10-16T13:47:00;23.70;87.60
1988;DHT22;12775;46.994;15.498;2022-10-16T13:49:26;23.80;88.10
1988;DHT22;12775;46.994;15.498;2022-10-16T13:51:56;23.80;88.10
1988;DHT22;12775;46.994;15.498;2022-10-16T13:54:22;23.80;87.90
1988;DHT22;12775;46.994;15.498;2022-10-16T13:56:49;23.90;87.00
1988;DHT22;12775;46.994;15.498;2022-10-16T13:59:23;23.90;86.70
1988;DHT22;12775;46.994;15.498;2022-10-16T14:01:48;24.00;87.20
1988;DHT22;12775;46.994;15.498;2022-10-16T14:04:15;24.00;87.00
1988;DHT22;12775;46.994;15.498;2022-10-16T14:06:43;23.80;84.70
1988;DHT22;12775;46.994;15.498;2022-10-16T14:09:24;23.80;85.60
1988;DHT22;12775;46.994;15.498;2022-10-16T14:11:53;23.90;85.60
1988;DHT22;12775;46.994;15.498;2022-10-16T14:14:18;23.90;85.40
1988;DHT22;12775;46.994;15.498;2022-10-16T14:16:45;23.70;87.60
1988;DHT22;12775;46.994;15.498;2022-10-16T14:19:14;23.50;87.00
1988;DHT22;12775;46.994;15.498;2022-10-16T14:21:40;23.50;87.30
1988;DHT22;12775;46.994;15.498;2022-10-16T14:24:11;23.60;87.70
1988;DHT22;12775;46.994;15.498;2022-10-16T14:26:41;23.60;87.80
1988;DHT22;12775;46.994;15.498;2022-10-16T14:29:12;23.30;87.70
1988;DHT22;12775;46.994;15.498;2022-10-16T14:31:37;23.40;89.10
1988;DHT22;12775;46.994;15.498;2022-10-16T14:34:03;23.40;88.70
1988;DHT22;12775;46.994;15.498;2022-10-16T14:36:30;23.30;88.50
1988;DHT22;12775;46.994;15.498;2022-10-16T14:39:02;23.30;89.50
1988;DHT22;12775;46.994;15.498;2022-10-16T14:41:27;23.30;89.30
1988;DHT22;12775;46.994;15.498;2022-10-16T14:43:54;23.30;89.60
1988;DHT22;12775;46.994;15.498;2022-10-16T14:46:21;23.30;89.50
1988;DHT22;12775;46.994;15.498;2022-10-16T14:48:47;23.20;89.00
1988;DHT22;12775;46.994;15.498;2022-10-16T14:51:14;23.30;90.00
1988;DHT22;12775;46.994;15.498;2022-10-16T14:53:40;23.30;89.10
1988;DHT22;12775;46.994;15.498;2022-10-16T14:56:07;23.40;89.00
1988;DHT22;12775;46.994;15.498;2022-10-16T14:58:34;23.30;89.20
1988;DHT22;12775;46.994;15.498;2022-10-16T15:01:01;23.20;89.00
1988;DHT22;12775;46.994;15.498;2022-10-16T15:03:27;23.20;89.80
1988;DHT22;12775;46.994;15.498;2022-10-16T15:05:54;23.10;90.00
1988;DHT22;12775;46.994;15.498;2022-10-16T15:08:20;23.10;90.10
1988;DHT22;12775;46.994;15.498;2022-10-16T15:10:47;23.10;90.10
1988;DHT22;12775;46.994;15.498;2022-10-16T15:13:14;23.10;90.10
1988;DHT22;12775;46.994;15.498;2022-10-16T15:15:43;23.00;90.40
1988;DHT22;12775;46.994;15.498;2022-10-16T15:18:09;23.00;90.40
1988;DHT22;12775;46.994;15.498;2022-10-16T15:20:37;23.00;90.40
1988;DHT22;12775;46.994;15.498;2022-10-16T15:23:06;23.00;90.40
1988;DHT22;12775;46.994;15.498;2022-10-16T15:25:36;23.00;90.50
1988;DHT22;12775;46.994;15.498;2022-10-16T15:28:02;23.00;90.30
1988;DHT22;12775;46.994;15.498;2022-10-16T15:30:28;23.00;90.40
1988;DHT22;12775;46.994;15.498;2022-10-16T15:32:55;23.00;90.40
1988;DHT22;12775;46.994;15.498;2022-10-16T15:35:22;23.00;90.20
1988;DHT22;12775;46.994;15.498;2022-10-16T15:37:48;23.00;90.20
1988;DHT22;12775;46.994;15.498;2022-10-16T15:40:15;22.80;90.20
1988;DHT22;12775;46.994;15.498;2022-10-16T15:42:41;22.80;90.40
1988;DHT22;12775;46.994;15.498;2022-10-16T15:45:08;22.70;90.30
1988;DHT22;12775;46.994;15.498;2022-10-16T15:47:35;22.70;90.50
1988;DHT22;12775;46.994;15.498;2022-10-16T15:50:02;22.70;90.60
1988;DHT22;12775;46.994;15.498;2022-10-16T15:52:28;22.60;90.50
1988;DHT22;12775;46.994;15.498;2022-10-16T15:54:55;22.70;90.60